createdAt,value
2019-05-12T00:00:31.332Z,99.90
2019-05-12T00:03:04.047Z,99.90
2019-05-12T00:05:38.236Z,99.90
2019-05-12T00:08:11.503Z,99.90
2019-05-12T00:10:43.567Z,99.90
2019-05-12T00:13:19.693Z,99.90
2019-05-12T00:15:58.940Z,99.90
2019-05-12T00:18:37.929Z,99.90
2019-05-12T00:21:14.310Z,99.90
2019-05-12T00:24:01.442Z,99.90
2019-05-12T00:26:38.794Z,99.90
2019-05-12T00:29:07.708Z,99.90
2019-05-12T00:31:41.157Z,99.90
2019-05-12T00:34:17.956Z,99.90
2019-05-12T00:36:45.481Z,99.90
2019-05-12T00:39:19.328Z,99.90
2019-05-12T00:42:02.020Z,99.90
2019-05-12T00:44:53.270Z,99.90
2019-05-12T00:47:52.358Z,99.90
2019-05-12T00:50:18.727Z,99.90
2019-05-12T00:52:49.898Z,99.90
2019-05-12T00:55:23.428Z,99.90
2019-05-12T00:58:00.942Z,99.90
2019-05-12T01:00:30.650Z,99.90
2019-05-12T01:03:14.224Z,99.90
2019-05-12T01:05:38.313Z,99.90
2019-05-12T01:08:13.036Z,99.90
2019-05-12T01:10:44.568Z,99.90
2019-05-12T01:13:18.875Z,99.90
2019-05-12T01:15:55.416Z,99.90
2019-05-12T01:18:29.071Z,99.90
2019-05-12T01:21:04.732Z,99.90
2019-05-12T01:23:34.491Z,99.90
2019-05-12T01:26:17.835Z,99.90
2019-05-12T01:28:55.163Z,99.90
2019-05-12T01:31:22.096Z,99.90
2019-05-12T01:33:52.845Z,99.90
2019-05-12T01:36:22.460Z,99.90
2019-05-12T01:38:53.421Z,99.90
2019-05-12T01:41:33.086Z,99.90
2019-05-12T01:44:08.808Z,99.90
2019-05-12T01:46:41.628Z,99.90
2019-05-12T01:49:18.510Z,99.90
2019-05-12T01:51:59.948Z,99.90
2019-05-12T01:54:41.518Z,99.90
2019-05-12T01:57:21.327Z,99.90
2019-05-12T01:59:52.686Z,99.90
2019-05-12T02:02:28.418Z,99.90
2019-05-12T02:05:11.425Z,99.90
2019-05-12T02:07:47.782Z,99.90
2019-05-12T02:10:20.899Z,99.90
2019-05-12T02:12:59.046Z,99.90
2019-05-12T02:15:32.371Z,99.90
2019-05-12T02:18:04.534Z,99.90
2019-05-12T02:20:37.947Z,99.90
2019-05-12T02:23:13.121Z,99.90
2019-05-12T02:25:41.513Z,99.90
2019-05-12T02:28:17.995Z,99.90
2019-05-12T02:30:50.193Z,99.90
2019-05-12T02:33:20.697Z,99.90
2019-05-12T02:35:56.080Z,99.90
2019-05-12T02:38:33.458Z,99.90
2019-05-12T02:41:05.085Z,99.90
2019-05-12T02:43:36.649Z,99.90
2019-05-12T02:46:11.171Z,99.90
2019-05-12T02:48:45.000Z,99.90
2019-05-12T02:51:18.165Z,99.90
2019-05-12T02:53:50.688Z,99.90
2019-05-12T02:56:27.357Z,99.90
2019-05-12T02:59:05.224Z,99.90
2019-05-12T03:01:35.597Z,99.90
2019-05-12T03:04:06.579Z,99.90
2019-05-12T03:06:38.311Z,99.90
2019-05-12T03:09:10.805Z,99.90
2019-05-12T03:11:44.773Z,99.90
2019-05-12T03:14:18.639Z,99.90
2019-05-12T03:16:50.314Z,99.90
2019-05-12T03:19:25.019Z,99.90
2019-05-12T03:21:55.431Z,99.90
2019-05-12T03:24:25.161Z,99.90
2019-05-12T03:26:55.468Z,99.90
2019-05-12T03:29:28.348Z,99.90
2019-05-12T03:32:07.958Z,99.90
2019-05-12T03:34:38.395Z,99.90
2019-05-12T03:37:10.271Z,99.90
2019-05-12T03:39:44.753Z,99.90
2019-05-12T03:42:24.932Z,99.90
2019-05-12T03:44:59.047Z,99.90
2019-05-12T03:47:28.712Z,99.90
2019-05-12T03:49:58.392Z,99.90
2019-05-12T03:52:35.208Z,99.90
2019-05-12T03:55:30.779Z,99.90
2019-05-12T03:57:55.027Z,99.90
2019-05-12T04:00:44.639Z,99.90
2019-05-12T04:03:10.933Z,99.90
2019-05-12T04:05:40.891Z,99.90
2019-05-12T04:08:16.488Z,99.90
2019-05-12T04:10:57.665Z,99.90
2019-05-12T04:13:22.459Z,99.90
2019-05-12T04:16:00.020Z,99.90
2019-05-12T04:18:48.956Z,99.90
2019-05-12T04:21:18.638Z,99.90
2019-05-12T04:23:49.862Z,99.90
2019-05-12T04:26:25.015Z,99.90
2019-05-12T04:28:55.537Z,99.90
2019-05-12T04:31:46.145Z,99.90
2019-05-12T04:34:19.263Z,99.90
2019-05-12T04:36:50.448Z,99.90
2019-05-12T04:39:34.101Z,99.90
2019-05-12T04:42:08.203Z,99.90
2019-05-12T04:44:39.435Z,99.90
2019-05-12T04:47:16.795Z,99.90
2019-05-12T04:49:45.664Z,99.90
2019-05-12T04:52:24.722Z,99.90
2019-05-12T04:54:55.260Z,99.90
2019-05-12T04:58:16.802Z,99.90
2019-05-12T05:00:05.254Z,99.90
2019-05-12T05:03:30.428Z,99.90
2019-05-12T05:06:04.511Z,99.90
2019-05-12T05:08:48.742Z,99.90
2019-05-12T05:11:18.694Z,99.90
2019-05-12T05:14:08.622Z,99.90
2019-05-12T05:16:30.544Z,99.90
2019-05-12T05:19:13.323Z,99.90
2019-05-12T05:21:47.949Z,99.90
2019-05-12T05:24:26.342Z,99.90
2019-05-12T05:27:13.313Z,99.90
2019-05-12T05:29:46.935Z,99.90
2019-05-12T05:32:18.583Z,99.90
2019-05-12T05:35:03.525Z,99.90
2019-05-12T05:37:37.023Z,99.90
2019-05-12T05:40:07.677Z,99.90
2019-05-12T05:43:14.028Z,99.90
2019-05-12T05:45:45.527Z,99.90
2019-05-12T05:48:21.127Z,99.90
2019-05-12T05:50:59.863Z,99.90
2019-05-12T05:53:35.687Z,99.70
2019-05-12T05:56:11.418Z,98.90
2019-05-12T05:58:51.709Z,98.50
2019-05-12T06:01:20.010Z,98.50
2019-05-12T06:03:58.267Z,98.60
2019-05-12T06:06:34.041Z,98.10
2019-05-12T06:09:06.958Z,97.70
2019-05-12T06:11:38.802Z,97.50
2019-05-12T06:14:34.221Z,97.10
2019-05-12T06:17:06.470Z,96.70
2019-05-12T06:19:40.364Z,96.20
2019-05-12T06:22:18.188Z,96.20
2019-05-12T06:24:53.906Z,96.30
2019-05-12T06:27:26.270Z,95.90
2019-05-12T06:30:10.071Z,96.10
2019-05-12T06:32:41.217Z,96.20
2019-05-12T06:35:10.522Z,96.30
2019-05-12T06:38:05.367Z,96.70
2019-05-12T06:40:45.670Z,96.90
2019-05-12T06:43:13.859Z,96.90
2019-05-12T06:45:47.675Z,96.40
2019-05-12T06:48:30.194Z,96.30
2019-05-12T06:51:17.116Z,96.20
2019-05-12T06:53:46.364Z,96.30
2019-05-12T06:56:19.812Z,96.10
2019-05-12T06:58:54.600Z,95.70
2019-05-12T07:01:33.468Z,95.60
2019-05-12T07:04:10.083Z,95.80
2019-05-12T07:06:44.108Z,95.70
2019-05-12T07:09:26.021Z,95.50
2019-05-12T07:12:02.949Z,95.20
2019-05-12T07:14:57.121Z,95.20
2019-05-12T07:17:49.571Z,95.00
2019-05-12T07:20:24.118Z,94.60
2019-05-12T07:22:56.979Z,94.80
2019-05-12T07:25:31.509Z,95.20
2019-05-12T07:28:08.673Z,94.60
2019-05-12T07:30:40.868Z,94.20
2019-05-12T07:33:15.280Z,93.90
2019-05-12T07:35:53.193Z,93.80
2019-05-12T07:38:46.899Z,94.00
2019-05-12T07:41:25.797Z,94.00
2019-05-12T07:44:03.652Z,93.10
2019-05-12T07:47:03.500Z,93.60
2019-05-12T07:52:04.138Z,92.50
2019-05-12T07:54:39.473Z,92.00
2019-05-12T07:57:17.177Z,92.10
2019-05-12T07:59:43.793Z,91.80
2019-05-12T08:02:31.438Z,90.90
2019-05-12T08:04:56.193Z,90.40
2019-05-12T08:07:30.032Z,90.80
2019-05-12T08:10:01.375Z,90.70
2019-05-12T08:12:35.251Z,90.60
2019-05-12T08:15:09.677Z,90.00
2019-05-12T08:17:38.425Z,89.00
2019-05-12T08:20:10.621Z,89.90
2019-05-12T08:22:44.011Z,88.50
2019-05-12T08:25:18.750Z,86.40
2019-05-12T08:27:50.277Z,85.30
2019-05-12T08:30:18.654Z,83.10
2019-05-12T08:32:54.717Z,81.40
2019-05-12T08:35:29.431Z,81.40
2019-05-12T08:37:57.694Z,78.70
2019-05-12T08:40:27.240Z,78.30
2019-05-12T08:42:59.423Z,76.50
2019-05-12T08:45:34.147Z,73.40
2019-05-12T08:48:10.015Z,71.80
2019-05-12T08:50:37.434Z,70.00
2019-05-12T08:53:14.018Z,67.10
2019-05-12T08:55:39.218Z,66.80
2019-05-12T08:58:08.882Z,66.30
2019-05-12T09:00:46.456Z,68.20
2019-05-12T09:03:14.289Z,67.20
2019-05-12T09:05:51.005Z,61.30
2019-05-12T09:08:21.189Z,61.30
2019-05-12T09:10:55.491Z,62.70
2019-05-12T09:13:26.952Z,63.10
2019-05-12T09:15:56.501Z,62.70
2019-05-12T09:18:34.212Z,60.80
2019-05-12T09:21:03.591Z,61.70
2019-05-12T09:23:41.211Z,62.50
2019-05-12T09:26:13.479Z,62.30
2019-05-12T09:28:49.833Z,61.30
2019-05-12T09:31:19.562Z,59.50
2019-05-12T09:33:48.258Z,58.50
2019-05-12T09:36:21.656Z,58.80
2019-05-12T09:38:55.862Z,58.50
2019-05-12T09:41:24.030Z,60.20
2019-05-12T09:43:53.977Z,59.70
2019-05-12T09:46:28.420Z,59.30
2019-05-12T09:48:56.183Z,59.00
2019-05-12T09:51:25.681Z,57.70
2019-05-12T09:53:55.665Z,56.80
2019-05-12T09:56:25.143Z,57.80
2019-05-12T09:59:01.428Z,57.00
2019-05-12T10:01:29.188Z,57.60
2019-05-12T10:03:57.316Z,56.10
2019-05-12T10:06:26.787Z,54.50
2019-05-12T10:08:56.320Z,55.50
2019-05-12T10:11:25.888Z,55.20
2019-05-12T10:14:00.201Z,51.80
2019-05-12T10:16:33.438Z,51.80
2019-05-12T10:19:04.803Z,51.00
2019-05-12T10:21:36.041Z,49.90
2019-05-12T10:24:07.964Z,47.50
2019-05-12T10:26:41.240Z,48.60
2019-05-12T10:29:17.540Z,47.30
2019-05-12T10:31:41.385Z,48.30
2019-05-12T10:34:20.297Z,46.30
2019-05-12T10:36:50.884Z,46.70
2019-05-12T10:39:20.922Z,46.80
2019-05-12T10:41:53.917Z,42.90
2019-05-12T10:44:30.169Z,42.60
2019-05-12T10:46:59.865Z,44.00
2019-05-12T10:49:30.836Z,42.60
2019-05-12T10:52:00.445Z,44.30
2019-05-12T10:54:31.226Z,43.30
2019-05-12T10:57:00.867Z,44.40
2019-05-12T10:59:33.501Z,42.30
2019-05-12T11:02:04.138Z,42.90
2019-05-12T11:04:39.419Z,42.70
2019-05-12T11:07:13.659Z,43.80
2019-05-12T11:09:43.944Z,42.80
2019-05-12T11:12:19.234Z,42.00
2019-05-12T11:14:48.795Z,41.80
2019-05-12T11:17:18.422Z,41.60
2019-05-12T11:19:52.008Z,42.40
2019-05-12T11:22:22.770Z,42.40
2019-05-12T11:24:56.107Z,38.90
2019-05-12T11:27:25.763Z,38.80
2019-05-12T11:29:57.038Z,39.10
2019-05-12T11:32:28.799Z,39.40
2019-05-12T11:34:59.482Z,38.80
2019-05-12T11:37:33.691Z,35.90
2019-05-12T11:40:00.808Z,38.00
2019-05-12T11:42:30.586Z,38.80
2019-05-12T11:45:03.871Z,40.10
2019-05-12T11:47:37.229Z,38.70
2019-05-12T11:50:13.086Z,37.00
2019-05-12T11:52:45.962Z,36.60
2019-05-12T11:55:15.098Z,35.20
2019-05-12T11:57:46.076Z,35.00
2019-05-12T12:00:20.010Z,36.50
2019-05-12T12:02:50.037Z,37.00
2019-05-12T12:05:19.796Z,36.50
2019-05-12T12:07:52.752Z,37.60
2019-05-12T12:10:20.706Z,37.70
2019-05-12T12:12:53.906Z,36.10
2019-05-12T12:15:30.266Z,36.30
2019-05-12T12:18:12.784Z,36.40
2019-05-12T12:20:39.952Z,37.60
2019-05-12T12:23:11.333Z,37.30
2019-05-12T12:25:48.530Z,37.90
2019-05-12T12:28:16.439Z,38.00
2019-05-12T12:30:52.515Z,37.80
2019-05-12T12:33:19.643Z,37.10
2019-05-12T12:35:50.491Z,36.70
2019-05-12T12:38:20.899Z,39.10
2019-05-12T12:40:53.557Z,39.20
2019-05-12T12:43:30.571Z,39.80
2019-05-12T12:46:19.803Z,40.80
2019-05-12T12:48:43.949Z,41.00
2019-05-12T12:51:17.523Z,41.50
2019-05-12T12:53:47.134Z,41.10
2019-05-12T12:56:28.308Z,40.80
2019-05-12T12:58:47.762Z,41.10
2019-05-12T13:01:26.832Z,40.50
2019-05-12T13:03:48.434Z,40.60
2019-05-12T13:06:17.916Z,40.80
2019-05-12T13:08:47.534Z,40.60
2019-05-12T13:11:30.517Z,40.40
2019-05-12T13:13:49.949Z,40.80
2019-05-12T13:16:23.860Z,40.30
2019-05-12T13:18:53.920Z,39.20
2019-05-12T13:21:23.426Z,40.50
2019-05-12T13:23:54.527Z,39.80
2019-05-12T13:26:26.554Z,40.00
2019-05-12T13:28:56.085Z,40.30
2019-05-12T13:31:25.661Z,41.10
2019-05-12T13:33:56.581Z,40.60
2019-05-12T13:36:29.619Z,39.90
2019-05-12T13:39:00.962Z,39.80
2019-05-12T13:41:33.909Z,40.20
2019-05-12T13:44:03.916Z,39.90
2019-05-12T13:46:34.471Z,40.00
2019-05-12T13:49:05.948Z,39.60
2019-05-12T13:51:35.683Z,40.10
2019-05-12T13:54:07.527Z,39.90
2019-05-12T13:56:37.103Z,40.10
2019-05-12T13:59:12.111Z,39.80
2019-05-12T14:01:45.491Z,38.90
2019-05-12T14:04:13.825Z,39.10
2019-05-12T14:06:42.832Z,40.40
2019-05-12T14:09:13.574Z,40.10
2019-05-12T14:11:43.719Z,40.40
2019-05-12T14:14:15.589Z,40.40
2019-05-12T14:16:52.453Z,41.60
2019-05-12T14:19:15.645Z,40.90
2019-05-12T14:21:45.141Z,40.80
2019-05-12T14:24:14.659Z,41.30
2019-05-12T14:26:45.361Z,42.60
2019-05-12T14:29:15.400Z,41.90
2019-05-12T14:31:55.067Z,42.00
2019-05-12T14:34:20.819Z,42.10
2019-05-12T14:36:48.882Z,43.50
2019-05-12T14:39:18.410Z,42.80
2019-05-12T14:41:53.297Z,42.70
2019-05-12T14:44:18.984Z,43.00
2019-05-12T14:46:50.623Z,42.70
2019-05-12T14:49:20.315Z,44.10
2019-05-12T14:51:53.550Z,46.40
2019-05-12T14:54:23.877Z,46.90
2019-05-12T14:56:57.759Z,56.60
2019-05-12T14:59:24.594Z,55.80
2019-05-12T15:01:59.200Z,64.20
2019-05-12T15:04:29.665Z,90.00
2019-05-12T15:06:59.751Z,95.10
2019-05-12T15:09:27.676Z,98.50
2019-05-12T15:11:57.327Z,99.90
2019-05-12T15:14:32.745Z,99.90
2019-05-12T15:16:58.228Z,99.90
2019-05-12T15:19:29.789Z,99.90
2019-05-12T15:22:01.542Z,99.90
2019-05-12T15:24:29.981Z,99.90
2019-05-12T15:27:03.832Z,99.90
2019-05-12T15:29:33.953Z,99.90
2019-05-12T15:32:06.748Z,99.90
2019-05-12T15:34:36.420Z,99.90
2019-05-12T15:37:10.661Z,99.90
2019-05-12T15:39:44.050Z,99.90
2019-05-12T15:42:20.381Z,99.90
2019-05-12T15:44:53.636Z,99.90
2019-05-12T15:47:27.284Z,99.90
2019-05-12T15:49:54.121Z,99.90
2019-05-12T15:52:24.648Z,99.90
2019-05-12T15:54:54.461Z,99.90
2019-05-12T15:57:24.486Z,99.90
2019-05-12T15:59:54.390Z,99.90
2019-05-12T16:02:27.362Z,99.90
2019-05-12T16:04:57.137Z,99.90
2019-05-12T16:07:29.616Z,99.90
2019-05-12T16:10:00.079Z,99.90
2019-05-12T16:12:31.354Z,99.90
2019-05-12T16:15:04.545Z,99.90
2019-05-12T16:17:34.272Z,99.90
2019-05-12T16:20:07.339Z,99.90
2019-05-12T16:22:44.701Z,99.90
2019-05-12T16:25:15.333Z,99.90
2019-05-12T16:27:47.499Z,99.90
2019-05-12T16:30:20.248Z,99.90
2019-05-12T16:32:48.758Z,99.90
2019-05-12T16:35:26.671Z,99.90
2019-05-12T16:37:54.238Z,99.90
2019-05-12T16:40:26.392Z,99.90
2019-05-12T16:43:00.873Z,99.90
2019-05-12T16:45:33.667Z,99.90
2019-05-12T16:48:07.720Z,99.90
2019-05-12T16:50:34.643Z,99.90
2019-05-12T16:53:05.588Z,99.90
2019-05-12T16:55:44.904Z,99.90
2019-05-12T16:58:07.997Z,99.90
2019-05-12T17:00:45.198Z,99.90
2019-05-12T17:03:16.576Z,99.90
2019-05-12T17:05:50.040Z,99.90
2019-05-12T17:08:24.108Z,99.90
2019-05-12T17:11:00.909Z,99.90
2019-05-12T17:13:25.758Z,99.90
2019-05-12T17:16:00.052Z,99.90
2019-05-12T17:18:30.836Z,99.90
2019-05-12T17:21:04.019Z,99.90
2019-05-12T17:23:32.984Z,99.90
2019-05-12T17:26:05.093Z,99.90
2019-05-12T17:28:36.150Z,99.90
2019-05-12T17:31:05.813Z,99.90
2019-05-12T17:33:39.265Z,99.90
2019-05-12T17:36:12.310Z,99.90
2019-05-12T17:38:44.142Z,99.90
2019-05-12T17:41:18.033Z,99.90
2019-05-12T17:43:59.570Z,99.90
2019-05-12T17:46:23.304Z,99.90
2019-05-12T17:48:53.943Z,99.90
2019-05-12T17:51:26.830Z,99.90
2019-05-12T17:53:56.554Z,99.90
2019-05-12T17:56:34.177Z,99.90
2019-05-12T17:58:57.796Z,99.90
2019-05-12T18:01:31.306Z,99.90
2019-05-12T18:04:01.357Z,99.90
2019-05-12T18:06:31.281Z,99.90
2019-05-12T18:09:09.329Z,99.90
2019-05-12T18:11:36.495Z,99.90
2019-05-12T18:14:07.270Z,99.90
2019-05-12T18:16:43.365Z,99.90
2019-05-12T18:19:15.297Z,99.90
2019-05-12T18:21:47.511Z,99.90
2019-05-12T18:24:18.387Z,99.90
2019-05-12T18:26:56.677Z,99.90
2019-05-12T18:29:28.328Z,99.90
2019-05-12T18:31:55.643Z,99.90
2019-05-12T18:34:33.917Z,99.90
2019-05-12T18:37:15.259Z,99.90
2019-05-12T18:39:44.849Z,99.90
2019-05-12T18:42:14.468Z,99.90
2019-05-12T18:44:48.133Z,99.90
2019-05-12T18:47:25.701Z,99.90
2019-05-12T18:49:53.887Z,99.90
2019-05-12T18:52:29.262Z,99.90
2019-05-12T18:54:59.110Z,99.90
2019-05-12T18:57:39.178Z,99.90
2019-05-12T19:00:17.207Z,99.90
2019-05-12T19:02:53.833Z,99.90
2019-05-12T19:05:27.522Z,99.90
2019-05-12T19:07:54.312Z,99.90
2019-05-12T19:10:27.052Z,99.90
2019-05-12T19:13:02.039Z,99.90
2019-05-12T19:15:30.617Z,99.90
2019-05-12T19:18:00.290Z,99.90
2019-05-12T19:20:31.312Z,99.90
2019-05-12T19:23:04.260Z,99.90
2019-05-12T19:25:40.608Z,99.90
2019-05-12T19:28:16.590Z,99.90
2019-05-12T19:30:44.715Z,99.90
2019-05-12T19:33:18.725Z,99.90
2019-05-12T19:35:59.798Z,99.90
2019-05-12T19:38:25.549Z,99.90
2019-05-12T19:41:00.855Z,99.90
2019-05-12T19:43:33.995Z,99.90
2019-05-12T19:46:07.150Z,99.90
2019-05-12T19:48:44.347Z,99.90
2019-05-12T19:51:21.898Z,99.90
2019-05-12T19:53:45.939Z,99.90
2019-05-12T19:56:19.689Z,99.90
2019-05-12T19:58:53.715Z,99.90
2019-05-12T20:01:26.015Z,99.90
2019-05-12T20:04:03.497Z,99.90
2019-05-12T20:06:26.540Z,99.90
2019-05-12T20:09:05.972Z,99.90
2019-05-12T20:11:31.571Z,99.90
2019-05-12T20:14:00.905Z,99.90
2019-05-12T20:16:31.861Z,99.90
2019-05-12T20:19:04.257Z,99.90
2019-05-12T20:21:43.593Z,99.90
2019-05-12T20:24:14.452Z,99.90
2019-05-12T20:26:46.624Z,99.90
2019-05-12T20:29:16.543Z,99.90
2019-05-12T20:31:48.862Z,99.90
2019-05-12T20:34:24.475Z,99.90
2019-05-12T20:36:58.974Z,99.90
2019-05-12T20:39:28.795Z,99.90
2019-05-12T20:42:02.465Z,99.90
2019-05-12T20:44:34.439Z,99.90
2019-05-12T20:47:06.505Z,99.90
2019-05-12T20:49:45.078Z,99.90
2019-05-12T20:52:09.723Z,99.90
2019-05-12T20:54:44.148Z,99.90
2019-05-12T20:57:18.465Z,99.90
2019-05-12T20:59:51.517Z,99.90
2019-05-12T21:02:23.538Z,99.90
2019-05-12T21:05:01.053Z,99.90
2019-05-12T21:07:28.320Z,99.90
2019-05-12T21:10:04.018Z,99.90
2019-05-12T21:12:33.453Z,99.90
2019-05-12T21:15:13.838Z,99.90
2019-05-12T21:17:43.618Z,99.90
2019-05-12T21:20:11.834Z,99.90
2019-05-12T21:22:40.470Z,99.90
2019-05-12T21:25:12.845Z,99.90
2019-05-12T21:27:46.842Z,99.90
2019-05-12T21:30:15.138Z,99.90
2019-05-12T21:33:01.078Z,99.90
2019-05-12T21:35:26.170Z,99.90
2019-05-12T21:38:06.903Z,99.90
2019-05-12T21:40:31.809Z,99.90
2019-05-12T21:43:07.727Z,99.90
2019-05-12T21:45:46.656Z,99.90
2019-05-12T21:48:28.658Z,99.90
2019-05-12T21:51:00.491Z,99.90
2019-05-12T21:53:34.323Z,99.90
2019-05-12T21:56:18.173Z,99.90
2019-05-12T21:58:53.471Z,99.90
2019-05-12T22:01:19.327Z,99.90
2019-05-12T22:03:57.899Z,99.90
2019-05-12T22:06:21.710Z,99.90
2019-05-12T22:08:55.370Z,99.90
2019-05-12T22:11:23.907Z,99.90
2019-05-12T22:13:59.811Z,99.90
2019-05-12T22:16:29.507Z,99.90
2019-05-12T22:18:59.419Z,99.90
2019-05-12T22:21:27.557Z,99.90
2019-05-12T22:24:04.015Z,99.90
2019-05-12T22:26:39.680Z,99.90
2019-05-12T22:29:04.374Z,99.90
2019-05-12T22:31:38.558Z,99.90
2019-05-12T22:34:06.994Z,99.90
2019-05-12T22:36:36.522Z,99.90
2019-05-12T22:39:07.587Z,99.90
2019-05-12T22:41:41.620Z,99.90
2019-05-12T22:44:18.339Z,99.90
2019-05-12T22:46:54.006Z,99.90
2019-05-12T22:49:21.007Z,99.90
2019-05-12T22:51:54.592Z,99.90
2019-05-12T22:54:24.354Z,99.90
2019-05-12T22:56:57.646Z,99.90
2019-05-12T22:59:34.397Z,99.90
2019-05-12T23:02:00.725Z,99.90
2019-05-12T23:04:35.660Z,99.90
2019-05-12T23:07:01.812Z,99.90
2019-05-12T23:09:35.004Z,99.90
2019-05-12T23:12:09.801Z,99.90
2019-05-12T23:14:45.480Z,99.90
2019-05-12T23:17:13.802Z,99.90
2019-05-12T23:19:51.528Z,99.90
2019-05-12T23:22:14.809Z,99.90
2019-05-12T23:24:44.454Z,99.90
2019-05-12T23:27:18.922Z,99.90
2019-05-12T23:29:48.457Z,99.90
2019-05-12T23:32:19.476Z,99.90
2019-05-12T23:34:53.945Z,99.90
2019-05-12T23:37:24.402Z,99.90
2019-05-12T23:39:53.843Z,99.90
2019-05-12T23:42:24.968Z,99.90
2019-05-12T23:44:54.608Z,99.90
2019-05-12T23:47:24.194Z,99.90
2019-05-12T23:49:55.455Z,99.90
2019-05-12T23:52:25.019Z,99.90
2019-05-12T23:54:56.300Z,99.90
2019-05-12T23:57:29.978Z,99.90
